DABC/CZL METAR and TAF weather

Enter ICAO airport designator
Station Type Date Time Source
DABC METAR 2019/10/21 05:30 UTC NOAA

DABC 210530Z 11005KT CAVOK 14/09 Q1019


Station Type Date Time Source
DABC Decoded METAR 2019/10/21 05:30 UTC NOAA

Constantine, Algeria (DABC) 36-17N 006-37E 694M
Oct 21, 2019 - 01:30 AM EDT / 2019.10.21 0530 UTC
Wind: from the ESE (110 degrees) at 6 MPH (5 KT):0
Visibility: greater than 7 mile(s):0
Temperature: 57 F (14 C)
Dew Point: 48 F (9 C)
Relative Humidity: 71%
Pressure (altimeter): 30.09 in. Hg (1019 hPa)
ob: DABC 210530Z 11005KT CAVOK 14/09 Q1019
cycle: 5

Station Type Date Time Source
DABC TAF 2019/10/21 06:33 UTC NOAA

TAF DABC 210500Z 2106/2206 12006KT CAVOK
BECMG 2110/2112 04012KT
TEMPO 2112/2122 FEW030TCU PROB30
TEMPO 2115/2119 5000 -TSRA FEW026CB
BECMG 2120/2122 14006KT

Example: see airport list